createdAt,value
2022-11-22T00:01:06.036Z,84.45
2022-11-22T00:03:38.336Z,84.84
2022-11-22T00:06:10.240Z,84.51
2022-11-22T00:08:42.108Z,85.03
2022-11-22T00:11:13.712Z,85.39
2022-11-22T00:13:45.548Z,85.79
2022-11-22T00:16:17.111Z,86.64
2022-11-22T00:18:49.160Z,86.63
2022-11-22T00:21:20.796Z,86.15
2022-11-22T00:23:55.704Z,85.34
2022-11-22T00:26:27.615Z,85.30
2022-11-22T00:28:59.635Z,85.64
2022-11-22T00:31:31.474Z,85.82
2022-11-22T00:34:03.644Z,86.43
2022-11-22T00:36:35.273Z,86.44
2022-11-22T00:39:07.219Z,86.24
2022-11-22T00:41:38.864Z,86.32
2022-11-22T00:44:11.658Z,86.55
2022-11-22T00:46:43.692Z,86.63
2022-11-22T00:49:15.404Z,86.52
2022-11-22T00:51:47.029Z,87.04
2022-11-22T00:54:18.872Z,86.96
2022-11-22T00:56:50.473Z,86.27
2022-11-22T00:59:22.582Z,86.29
2022-11-22T01:01:54.503Z,86.66
2022-11-22T01:04:26.261Z,87.08
2022-11-22T01:06:57.988Z,87.05
2022-11-22T01:09:30.146Z,86.97
2022-11-22T01:12:02.026Z,86.04
2022-11-22T01:14:33.929Z,86.08
2022-11-22T01:17:05.662Z,86.76
2022-11-22T01:19:37.338Z,86.84
2022-11-22T01:22:09.492Z,87.15
2022-11-22T01:24:41.159Z,86.86
2022-11-22T01:27:12.748Z,86.93
2022-11-22T01:29:44.420Z,86.63
2022-11-22T01:32:16.116Z,87.12
2022-11-22T01:34:47.653Z,87.56
2022-11-22T01:37:19.306Z,87.67
2022-11-22T01:39:50.973Z,87.22
2022-11-22T01:42:22.581Z,86.78
2022-11-22T01:44:56.110Z,86.14
2022-11-22T01:47:28.455Z,85.07
2022-11-22T01:50:03.312Z,84.99
2022-11-22T01:52:36.911Z,85.02
2022-11-22T01:55:13.324Z,85.62
2022-11-22T01:57:47.893Z,85.80
2022-11-22T02:00:22.332Z,85.23
2022-11-22T02:02:57.210Z,85.13
2022-11-22T02:05:33.916Z,84.96
2022-11-22T02:08:09.279Z,84.52
2022-11-22T02:10:47.563Z,84.92
2022-11-22T02:13:23.440Z,85.45
2022-11-22T02:15:55.464Z,85.64
2022-11-22T02:18:27.918Z,86.28
2022-11-22T02:21:00.529Z,86.53
2022-11-22T02:23:43.274Z,87.21
2022-11-22T02:26:13.666Z,86.44
2022-11-22T02:28:45.470Z,86.07
2022-11-22T02:31:42.413Z,86.76
2022-11-22T02:34:14.873Z,87.07
2022-11-22T02:36:49.830Z,86.05
2022-11-22T02:39:25.220Z,86.22
2022-11-22T02:41:58.865Z,86.05
2022-11-22T02:44:30.695Z,85.66
2022-11-22T02:47:02.472Z,84.01
2022-11-22T02:49:34.252Z,84.17
2022-11-22T02:52:06.195Z,84.53
2022-11-22T02:54:38.000Z,84.84
2022-11-22T02:57:09.817Z,84.73
2022-11-22T02:59:41.468Z,84.70
2022-11-22T03:02:13.095Z,84.78
2022-11-22T03:04:45.274Z,84.46
2022-11-22T03:07:18.402Z,84.82
2022-11-22T03:09:50.096Z,84.98
2022-11-22T03:12:21.823Z,84.51
2022-11-22T03:14:53.516Z,84.26
2022-11-22T03:17:25.172Z,84.31
2022-11-22T03:19:56.804Z,84.08
2022-11-22T03:22:28.722Z,84.13
2022-11-22T03:25:00.331Z,83.92
2022-11-22T03:27:32.237Z,83.41
2022-11-22T03:30:04.897Z,83.97
2022-11-22T03:32:37.341Z,83.92
2022-11-22T03:35:10.786Z,84.09
2022-11-22T03:37:42.522Z,84.42
2022-11-22T03:40:15.553Z,84.68
2022-11-22T03:42:47.695Z,84.65
2022-11-22T03:45:19.365Z,83.84
2022-11-22T03:47:51.309Z,83.42
2022-11-22T03:50:23.569Z,83.08
2022-11-22T03:52:55.848Z,83.16
2022-11-22T03:55:27.497Z,83.40
2022-11-22T03:57:59.313Z,82.32
2022-11-22T04:00:31.979Z,82.02
2022-11-22T04:03:03.924Z,82.69
2022-11-22T04:05:35.725Z,83.56
2022-11-22T04:08:07.759Z,83.44
2022-11-22T04:10:39.583Z,83.62
2022-11-22T04:13:11.193Z,83.16
2022-11-22T04:15:44.698Z,83.03
2022-11-22T04:18:16.861Z,83.02
2022-11-22T04:21:08.492Z,83.21
2022-11-22T04:23:42.557Z,82.90
2022-11-22T04:26:14.380Z,83.11
2022-11-22T04:29:08.712Z,82.96
2022-11-22T04:31:55.730Z,82.87
2022-11-22T04:34:27.467Z,82.70
2022-11-22T04:36:59.147Z,83.60
2022-11-22T04:39:31.104Z,83.16
2022-11-22T04:42:20.702Z,83.20
2022-11-22T04:44:52.620Z,84.01
2022-11-22T04:47:44.968Z,83.50
2022-11-22T04:50:37.295Z,83.82
2022-11-22T04:53:09.219Z,83.35
2022-11-22T04:55:41.289Z,83.49
2022-11-22T04:58:13.659Z,83.29
2022-11-22T05:00:45.555Z,83.39
2022-11-22T05:03:17.728Z,83.72
2022-11-22T05:05:49.553Z,83.22
2022-11-22T05:08:21.271Z,82.97
2022-11-22T05:10:59.444Z,83.13
2022-11-22T05:13:34.621Z,82.81
2022-11-22T05:16:08.575Z,82.63
2022-11-22T05:18:41.086Z,83.03
2022-11-22T05:21:17.031Z,83.10
2022-11-22T05:23:57.693Z,83.25
2022-11-22T05:26:30.756Z,82.57
2022-11-22T05:29:08.417Z,82.21
2022-11-22T05:31:45.724Z,82.88
2022-11-22T05:34:21.606Z,83.08
2022-11-22T05:36:53.352Z,82.72
2022-11-22T05:39:25.192Z,83.21
2022-11-22T05:41:56.941Z,83.42
2022-11-22T05:44:28.612Z,83.03
2022-11-22T05:47:01.190Z,83.25
2022-11-22T05:49:31.942Z,83.22
2022-11-22T05:52:04.230Z,83.09
2022-11-22T05:54:35.851Z,83.03
2022-11-22T05:57:07.574Z,83.45
2022-11-22T05:59:43.981Z,82.80
2022-11-22T06:02:16.137Z,83.40
2022-11-22T06:04:48.113Z,83.27
2022-11-22T06:07:19.828Z,83.39
2022-11-22T06:09:51.529Z,83.32
2022-11-22T06:12:23.373Z,83.57
2022-11-22T06:14:55.087Z,83.41
2022-11-22T06:17:26.807Z,83.69
2022-11-22T06:20:04.165Z,83.87
2022-11-22T06:22:37.361Z,83.97
2022-11-22T06:25:11.198Z,83.51
2022-11-22T06:27:43.012Z,83.65
2022-11-22T06:30:16.063Z,83.71
2022-11-22T06:32:48.356Z,83.74
2022-11-22T06:35:20.889Z,83.86
2022-11-22T06:37:54.914Z,83.60
2022-11-22T06:40:29.283Z,83.87
2022-11-22T06:43:01.020Z,84.01
2022-11-22T06:45:32.873Z,84.70
2022-11-22T06:48:04.901Z,84.48
2022-11-22T06:50:36.634Z,84.37
2022-11-22T06:53:21.299Z,84.81
2022-11-22T06:56:06.388Z,84.65
2022-11-22T06:58:39.867Z,84.59
2022-11-22T07:01:14.400Z,84.51
2022-11-22T07:03:46.638Z,84.66
2022-11-22T07:06:20.109Z,84.58
2022-11-22T07:08:51.894Z,84.75
2022-11-22T07:11:25.505Z,84.42
2022-11-22T07:14:03.452Z,84.59
2022-11-22T07:16:39.995Z,84.66
2022-11-22T07:19:12.769Z,85.07
2022-11-22T07:21:44.536Z,85.00
2022-11-22T07:24:16.445Z,84.67
2022-11-22T07:26:48.192Z,85.35
2022-11-22T07:29:20.313Z,84.99
2022-11-22T07:31:53.982Z,84.79
2022-11-22T07:34:25.707Z,85.20
2022-11-22T07:37:01.346Z,84.85
2022-11-22T07:39:35.948Z,84.96
2022-11-22T07:42:08.289Z,84.89
2022-11-22T07:44:42.307Z,85.53
2022-11-22T07:47:16.197Z,85.44
2022-11-22T07:49:51.603Z,84.89
2022-11-22T07:52:23.432Z,84.95
2022-11-22T07:54:55.580Z,85.84
2022-11-22T07:57:27.505Z,85.84
2022-11-22T07:59:59.504Z,85.73
2022-11-22T08:02:31.290Z,85.55
2022-11-22T08:05:02.986Z,86.33
2022-11-22T08:07:34.812Z,87.02
2022-11-22T08:10:07.960Z,87.38
2022-11-22T08:12:39.758Z,87.48
2022-11-22T08:15:13.505Z,88.00
2022-11-22T08:17:46.498Z,87.65
2022-11-22T08:20:20.607Z,87.70
2022-11-22T08:22:52.360Z,87.67
2022-11-22T08:25:24.313Z,88.05
2022-11-22T08:27:56.212Z,88.73
2022-11-22T08:30:28.171Z,89.32
2022-11-22T08:33:00.361Z,89.42
2022-11-22T08:35:32.168Z,89.43
2022-11-22T08:38:04.102Z,89.46
2022-11-22T08:40:40.886Z,89.49
2022-11-22T08:43:12.989Z,89.35
2022-11-22T08:45:44.788Z,89.82
2022-11-22T08:48:21.787Z,90.20
2022-11-22T08:50:55.475Z,90.54
2022-11-22T08:53:28.017Z,90.51
2022-11-22T08:56:02.174Z,90.55
2022-11-22T08:58:34.917Z,91.33
2022-11-22T09:01:13.066Z,91.01
2022-11-22T09:03:45.797Z,91.30
2022-11-22T09:12:02.618Z,93.24
2022-11-22T09:14:35.693Z,92.88
2022-11-22T09:17:08.195Z,92.79
2022-11-22T09:19:40.593Z,93.49
2022-11-22T09:22:12.437Z,93.43
2022-11-22T09:24:44.852Z,93.50
2022-11-22T09:27:16.767Z,94.25
2022-11-22T09:29:48.671Z,94.32
2022-11-22T09:32:20.557Z,93.66
2022-11-22T09:34:52.463Z,93.57
2022-11-22T09:37:24.214Z,93.94
2022-11-22T09:39:56.012Z,93.82
2022-11-22T09:42:44.671Z,94.12
2022-11-22T09:45:38.783Z,93.93
2022-11-22T09:48:25.010Z,93.21
2022-11-22T09:51:04.211Z,92.83
2022-11-22T09:53:42.715Z,92.32
2022-11-22T09:56:16.818Z,92.21
2022-11-22T09:58:52.514Z,93.39
2022-11-22T10:01:28.412Z,93.67
2022-11-22T10:04:04.756Z,94.03
2022-11-22T10:06:40.150Z,93.43
2022-11-22T10:09:26.611Z,94.13
2022-11-22T10:12:03.639Z,93.86
2022-11-22T10:14:45.739Z,94.10
2022-11-22T10:17:29.263Z,94.74
2022-11-22T10:20:11.673Z,94.90
2022-11-22T10:22:43.771Z,94.85
2022-11-22T10:25:21.953Z,94.58
2022-11-22T10:28:00.751Z,94.67
2022-11-22T10:30:40.700Z,95.11
2022-11-22T10:33:19.424Z,95.50
2022-11-22T10:36:18.384Z,95.44
2022-11-22T10:39:08.585Z,96.38
2022-11-22T10:42:00.243Z,97.29
2022-11-22T10:44:44.186Z,96.83
2022-11-22T10:47:26.543Z,97.06
2022-11-22T10:50:06.228Z,97.49
2022-11-22T10:52:49.189Z,97.42
2022-11-22T10:55:32.555Z,97.77
2022-11-22T10:58:08.183Z,97.93
2022-11-22T11:00:45.117Z,97.61
2022-11-22T11:03:27.128Z,98.26
2022-11-22T11:06:26.556Z,98.97
2022-11-22T11:09:54.964Z,99.01
2022-11-22T11:11:55.685Z,98.67
2022-11-22T11:14:36.035Z,98.70
2022-11-22T11:17:13.346Z,98.63
2022-11-22T11:19:48.350Z,99.42
2022-11-22T11:22:50.301Z,99.85
2022-11-22T11:28:19.543Z,100.00
2022-11-22T11:30:54.905Z,100.00
2022-11-22T11:33:32.802Z,100.00
2022-11-22T11:36:10.033Z,100.00
2022-11-22T11:38:54.372Z,100.00
2022-11-22T11:41:43.634Z,100.00
2022-11-22T11:44:32.338Z,100.00
2022-11-22T11:47:06.263Z,100.00
2022-11-22T11:49:39.133Z,100.00
2022-11-22T11:52:21.190Z,100.00
2022-11-22T11:54:56.520Z,100.00
2022-11-22T11:57:31.806Z,100.00
2022-11-22T12:00:07.830Z,100.00
2022-11-22T12:02:43.184Z,100.00
2022-11-22T12:05:29.532Z,100.00
2022-11-22T12:08:01.904Z,100.00
2022-11-22T12:10:42.290Z,100.00
2022-11-22T12:13:22.627Z,100.00
2022-11-22T12:15:59.400Z,100.00
2022-11-22T12:18:41.805Z,100.00
2022-11-22T12:21:24.941Z,100.00
2022-11-22T12:24:34.359Z,100.00
2022-11-22T12:26:55.155Z,100.00
2022-11-22T12:29:26.974Z,100.00
2022-11-22T12:32:04.033Z,99.89
2022-11-22T12:34:40.632Z,99.97
2022-11-22T12:37:16.468Z,100.00
2022-11-22T12:39:51.652Z,100.00
2022-11-22T12:42:30.694Z,100.00
2022-11-22T12:45:07.857Z,100.00
2022-11-22T12:47:43.027Z,100.00
2022-11-22T12:50:27.475Z,100.00
2022-11-22T12:53:04.508Z,100.00
2022-11-22T12:55:46.064Z,100.00
2022-11-22T12:58:22.856Z,100.00
2022-11-22T13:01:08.162Z,100.00
2022-11-22T13:03:45.477Z,100.00
2022-11-22T13:06:23.170Z,100.00
2022-11-22T13:09:03.787Z,100.00
2022-11-22T13:11:41.306Z,99.97
2022-11-22T13:14:21.176Z,99.99
2022-11-22T13:16:54.995Z,100.00
2022-11-22T13:19:30.500Z,100.00
2022-11-22T13:22:16.521Z,100.00
2022-11-22T13:25:02.246Z,100.00
2022-11-22T13:27:38.398Z,100.00
2022-11-22T13:30:21.666Z,100.00
2022-11-22T13:32:55.815Z,100.00
2022-11-22T13:35:34.270Z,99.79
2022-11-22T13:38:14.314Z,99.58
2022-11-22T13:40:50.567Z,99.33
2022-11-22T13:43:55.206Z,99.10
2022-11-22T13:46:55.526Z,99.14
2022-11-22T13:49:46.594Z,98.79
2022-11-22T13:52:53.512Z,98.67
2022-11-22T13:55:42.277Z,98.26
2022-11-22T13:58:50.808Z,98.39
2022-11-22T14:01:50.961Z,98.46
2022-11-22T14:04:39.379Z,98.45
2022-11-22T14:07:29.388Z,98.11
2022-11-22T14:10:03.264Z,97.93
2022-11-22T14:12:51.483Z,98.14
2022-11-22T14:15:41.884Z,98.19
2022-11-22T14:18:32.060Z,98.26
2022-11-22T14:21:08.657Z,98.79
2022-11-22T14:23:54.951Z,98.33
2022-11-22T14:26:33.035Z,97.78
2022-11-22T14:29:41.217Z,98.20
2022-11-22T14:32:19.820Z,98.19
2022-11-22T14:35:29.629Z,97.40
2022-11-22T14:38:29.158Z,97.62
2022-11-22T14:41:34.729Z,97.71
2022-11-22T14:44:09.332Z,97.60
2022-11-22T14:46:53.193Z,97.62
2022-11-22T14:49:38.229Z,97.45
2022-11-22T14:52:21.246Z,97.35
2022-11-22T14:54:58.020Z,96.89
2022-11-22T14:57:33.640Z,97.54
2022-11-22T15:00:20.451Z,97.28
2022-11-22T15:03:23.012Z,97.51
2022-11-22T15:09:10.582Z,96.98
2022-11-22T15:09:46.847Z,96.83
2022-11-22T15:12:34.628Z,97.33
2022-11-22T15:57:37.461Z,96.93
2022-11-22T16:00:22.528Z,96.98
2022-11-22T16:02:57.094Z,97.12
2022-11-22T16:06:06.743Z,96.64
2022-11-22T16:08:32.291Z,96.74
2022-11-22T16:11:06.683Z,97.46
2022-11-22T16:13:40.129Z,97.73
2022-11-22T16:16:26.687Z,97.05
2022-11-22T16:19:21.616Z,96.78
2022-11-22T16:22:01.377Z,96.38
2022-11-22T16:24:33.993Z,96.25
2022-11-22T16:27:14.584Z,97.31
2022-11-22T16:29:54.020Z,96.94
2022-11-22T16:32:27.547Z,97.39
2022-11-22T16:35:22.027Z,97.29
2022-11-22T16:37:52.777Z,96.98
2022-11-22T16:40:25.665Z,96.33
2022-11-22T16:42:58.216Z,96.30
2022-11-22T16:45:31.257Z,96.59
2022-11-22T16:48:30.950Z,96.57
2022-11-22T16:51:07.732Z,95.94
2022-11-22T16:53:45.823Z,95.71
2022-11-22T16:56:23.973Z,95.83
2022-11-22T16:58:58.654Z,95.87
2022-11-22T17:01:35.281Z,95.95
2022-11-22T17:04:08.742Z,95.66
2022-11-22T17:06:44.757Z,95.78
2022-11-22T17:09:16.600Z,95.73
2022-11-22T17:11:49.284Z,95.45
2022-11-22T17:14:21.875Z,95.04
2022-11-22T17:16:54.330Z,95.80
2022-11-22T17:22:20.341Z,96.40
2022-11-22T17:24:52.146Z,96.20
2022-11-22T17:27:24.348Z,96.19
2022-11-22T17:29:56.160Z,96.58
2022-11-22T17:32:28.484Z,97.34
2022-11-22T17:35:00.886Z,96.55
2022-11-22T17:37:32.952Z,96.32
2022-11-22T17:40:06.650Z,95.86
2022-11-22T17:42:41.302Z,96.44
2022-11-22T17:45:14.428Z,96.46
2022-11-22T17:47:46.408Z,96.27
2022-11-22T17:50:19.743Z,96.44
2022-11-22T17:52:52.450Z,96.93
2022-11-22T17:55:32.695Z,96.75
2022-11-22T17:58:14.455Z,97.01
2022-11-22T18:00:48.139Z,97.59
2022-11-22T18:03:19.995Z,97.47
2022-11-22T18:05:51.854Z,97.39
2022-11-22T18:08:23.618Z,97.87
2022-11-22T18:10:56.915Z,97.38
2022-11-22T18:13:30.048Z,97.05
2022-11-22T18:16:04.769Z,96.62
2022-11-22T18:21:33.387Z,96.95
2022-11-22T18:24:08.424Z,96.76
2022-11-22T18:26:41.296Z,97.28
2022-11-22T18:32:07.757Z,97.31
2022-11-22T18:34:41.403Z,97.54
2022-11-22T18:37:13.300Z,97.13
2022-11-22T18:39:45.113Z,97.42
2022-11-22T18:42:18.153Z,97.43
2022-11-22T18:44:50.297Z,97.32
2022-11-22T18:47:22.317Z,97.32
2022-11-22T18:49:58.374Z,96.99
2022-11-22T18:52:34.403Z,97.32
2022-11-22T18:55:07.888Z,97.14
2022-11-22T18:57:40.758Z,96.99
2022-11-22T19:00:14.433Z,97.46
2022-11-22T19:02:47.419Z,97.68
2022-11-22T19:05:24.322Z,97.66
2022-11-22T19:07:56.876Z,97.09
2022-11-22T19:10:29.127Z,96.67
2022-11-22T19:13:01.545Z,97.09
2022-11-22T19:15:33.549Z,96.81
2022-11-22T19:18:06.063Z,97.05
2022-11-22T19:20:54.495Z,97.29
2022-11-22T19:23:27.363Z,96.77
2022-11-22T19:25:59.846Z,96.42
2022-11-22T19:28:32.328Z,96.42
2022-11-22T19:31:06.474Z,96.33
2022-11-22T19:33:39.970Z,96.14
2022-11-22T19:36:14.443Z,96.02
2022-11-22T19:38:49.233Z,95.95
2022-11-22T19:41:25.299Z,96.24
2022-11-22T19:43:58.849Z,96.72
2022-11-22T19:46:31.963Z,96.54
2022-11-22T19:49:06.581Z,96.78
2022-11-22T19:51:39.814Z,97.00
2022-11-22T19:54:13.068Z,96.72
2022-11-22T19:56:45.674Z,96.53
2022-11-22T19:59:18.379Z,96.71
2022-11-22T20:01:52.055Z,96.47
2022-11-22T20:04:23.991Z,96.50
2022-11-22T20:06:55.833Z,96.81
2022-11-22T20:09:29.476Z,96.79
2022-11-22T20:12:01.529Z,96.93
2022-11-22T20:14:33.956Z,96.83
2022-11-22T20:17:07.886Z,96.73
2022-11-22T20:19:40.688Z,96.54
2022-11-22T20:22:13.510Z,96.58
2022-11-22T20:24:46.147Z,96.49
2022-11-22T20:27:24.474Z,96.35
2022-11-22T20:30:00.195Z,96.05
2022-11-22T20:32:35.126Z,96.34
2022-11-22T20:35:07.645Z,96.34
2022-11-22T20:37:41.493Z,96.36
2022-11-22T20:40:14.513Z,96.43
2022-11-22T20:42:46.296Z,96.34
2022-11-22T20:45:18.746Z,95.89
2022-11-22T20:47:51.228Z,95.68
2022-11-22T20:50:22.090Z,95.90
2022-11-22T20:52:54.367Z,96.09
2022-11-22T20:55:26.841Z,95.74
2022-11-22T20:58:00.393Z,96.25
2022-11-22T21:00:34.446Z,96.55
2022-11-22T21:03:08.185Z,96.19
2022-11-22T21:05:41.700Z,96.68
2022-11-22T21:08:14.335Z,96.74
2022-11-22T21:10:45.742Z,96.60
2022-11-22T21:13:20.498Z,96.65
2022-11-22T21:15:52.405Z,96.51
2022-11-22T21:18:26.243Z,96.70
2022-11-22T21:21:05.132Z,96.57
2022-11-22T21:23:38.242Z,96.87
2022-11-22T21:26:10.618Z,96.48
2022-11-22T21:28:42.397Z,96.24
2022-11-22T21:31:15.308Z,96.65
2022-11-22T21:33:47.657Z,96.35
2022-11-22T21:36:20.699Z,96.18
2022-11-22T21:38:52.488Z,96.49
2022-11-22T21:41:39.402Z,97.01
2022-11-22T21:44:12.501Z,97.20
2022-11-22T21:46:45.746Z,96.92
2022-11-22T21:49:17.684Z,96.97
2022-11-22T21:51:50.064Z,96.78
2022-11-22T21:54:22.594Z,96.86
2022-11-22T21:56:58.439Z,97.53
2022-11-22T21:59:34.354Z,97.66
2022-11-22T22:02:06.529Z,97.56
2022-11-22T22:04:38.752Z,97.31
2022-11-22T22:07:29.744Z,97.18
2022-11-22T22:10:03.196Z,97.54
2022-11-22T22:12:35.630Z,97.44
2022-11-22T22:15:10.621Z,97.47
2022-11-22T22:17:53.299Z,97.46
2022-11-22T22:20:26.438Z,97.42
2022-11-22T22:22:59.083Z,96.90
2022-11-22T22:25:31.079Z,96.75
2022-11-22T22:28:02.836Z,97.35
2022-11-22T22:30:34.923Z,97.64
2022-11-22T22:33:07.077Z,97.27
2022-11-22T22:35:39.431Z,96.91
2022-11-22T22:38:11.576Z,97.18
2022-11-22T22:40:43.292Z,97.17
2022-11-22T22:43:14.968Z,97.23
2022-11-22T22:45:46.780Z,97.17
2022-11-22T22:48:19.227Z,96.99
2022-11-22T22:50:51.028Z,97.07
2022-11-22T22:53:22.737Z,97.11
2022-11-22T22:55:57.423Z,97.10
2022-11-22T22:58:29.577Z,97.07
2022-11-22T23:01:09.325Z,97.10
2022-11-22T23:03:41.549Z,96.89
2022-11-22T23:06:14.915Z,97.38
2022-11-22T23:08:49.308Z,97.00
2022-11-22T23:11:43.918Z,97.02
2022-11-22T23:14:17.879Z,96.60
2022-11-22T23:16:55.947Z,96.64
2022-11-22T23:19:30.915Z,97.03
2022-11-22T23:22:03.634Z,97.20
2022-11-22T23:24:35.658Z,97.52
2022-11-22T23:27:07.591Z,98.16
2022-11-22T23:29:40.334Z,98.00
2022-11-22T23:32:14.815Z,97.61
2022-11-22T23:34:48.874Z,97.57
2022-11-22T23:37:21.409Z,97.50
2022-11-22T23:39:53.907Z,97.22
2022-11-22T23:42:24.269Z,97.51
2022-11-22T23:44:57.026Z,97.74
2022-11-22T23:47:27.243Z,98.03
2022-11-22T23:49:59.436Z,97.44
2022-11-22T23:52:31.449Z,97.68
2022-11-22T23:55:04.323Z,98.17
2022-11-22T23:57:36.511Z,97.78
